Terminal Aerodrome Forecast
Issued by NWS

Home | Current Version | Previous Version | Text Only | Print | Product List | Glossary On
Versions: 1 2 3 4 5 6 7 8 9 10 11 12 13
000
FTUS42 KMLB 300539
TAFLEE
TAF
KLEE 300539Z 3006/3106 00000KT P6SM SKC
     FM301500 24006KT P6SM FEW150
     FM310000 26006KT P6SM FEW050=

USA.gov is the U.S. government's official web portal to all federal, state and local government web resources and services.